Time;durP1;ratioP1;P1;durP2;ratioP2;P2;SDS_P1;SDS_P2;PMS_P1;PMS_P2;Temp;Humidity;BMP_temperature;BMP_pressure;BME280_temperature;BME280_humidity;BME280_pressure;Samples;Min_cycle;Max_cycle;Signal;HPM_P1;HPM_P2
2023/09/06 00:01:34;;;;;;;6.10;4.97;;;;;;;17.83;67.99;101770.56;15557142;28;20065;-50
2023/09/06 00:09:09;;;;;;;5.70;4.80;;;;;;;17.82;67.71;101773.53;15557034;28;20053;-46
2023/09/06 00:16:46;;;;;;;7.78;5.13;;;;;;;17.53;68.69;101772.47;15538188;28;20050;-47
2023/09/06 00:24:20;;;;;;;5.78;5.18;;;;;;;17.69;67.54;101771.81;15553256;28;20045;-47
2023/09/06 00:31:55;;;;;;;6.80;5.35;;;;;;;17.58;67.80;101770.72;15554518;28;20403;-47
2023/09/06 00:39:30;;;;;;;7.63;5.85;;;;;;;17.45;67.70;101767.38;15552406;28;20491;-50
2023/09/06 00:47:05;;;;;;;7.15;5.35;;;;;;;17.30;68.34;101765.09;15552563;28;20050;-46
2023/09/06 00:54:39;;;;;;;7.72;5.15;;;;;;;17.07;68.81;101768.50;15553471;28;20065;-47
2023/09/06 01:02:14;;;;;;;8.88;5.60;;;;;;;16.93;68.61;101770.56;15552624;28;20061;-46
2023/09/06 01:09:47;;;;;;;7.13;5.85;;;;;;;17.07;68.29;101769.34;15551888;28;20057;-46
2023/09/06 01:17:25;;;;;;;7.72;6.03;;;;;;;17.03;68.22;101779.00;15560367;28;20387;-47
2023/09/06 01:24:59;;;;;;;8.65;6.80;;;;;;;16.86;68.69;101767.09;15562924;28;20120;-47
2023/09/06 01:32:32;;;;;;;7.35;5.80;;;;;;;16.71;69.12;101775.56;15562601;28;20038;-46
2023/09/06 01:40:17;;;;;;;8.15;5.82;;;;;;;16.69;68.51;101774.94;15561953;28;20053;-48
2023/09/06 01:47:50;;;;;;;7.47;6.30;;;;;;;16.68;68.49;101772.47;15561067;28;20046;-44
2023/09/06 01:55:25;;;;;;;8.20;5.57;;;;;;;16.59;68.72;101772.75;15544637;28;20046;-47
2023/09/06 02:03:00;;;;;;;6.13;5.47;;;;;;;16.52;68.93;101782.03;15560030;28;20438;-48
2023/09/06 02:10:35;;;;;;;7.82;5.95;;;;;;;16.44;69.02;101774.19;15560779;28;20379;-48
2023/09/06 02:18:10;;;;;;;7.75;6.00;;;;;;;16.29;69.56;101766.44;15559515;28;20096;-46
2023/09/06 02:25:48;;;;;;;8.60;6.22;;;;;;;16.31;69.47;101748.03;15558468;28;20041;-46
2023/09/06 02:33:22;;;;;;;10.90;6.40;;;;;;;16.30;69.39;101763.47;15559105;28;20096;-49
2023/09/06 02:40:56;;;;;;;;;;;;;;;16.24;69.68;101758.13;15560079;28;20490;-46
2023/09/06 02:48:29;;;;;;;7.57;6.78;;;;;;;16.20;69.53;101762.34;15557639;28;19950;-47
2023/09/06 02:56:04;;;;;;;10.60;6.97;;;;;;;16.08;69.60;101764.94;15557481;28;20034;-51
2023/09/06 03:03:38;;;;;;;10.50;7.13;;;;;;;15.96;69.63;101772.97;15557431;28;20046;-46
2023/09/06 03:11:14;;;;;;;8.32;7.07;;;;;;;15.93;69.59;101781.50;15557003;28;20446;-50
2023/09/06 03:18:54;;;;;;;9.43;6.78;;;;;;;16.08;69.01;101792.00;15556630;28;20096;-48
2023/09/06 03:26:29;;;;;;;8.10;6.45;;;;;;;15.88;69.15;101783.22;15539703;28;20049;-49
2023/09/06 03:34:07;;;;;;;9.30;6.80;;;;;;;15.66;68.92;101759.22;15553813;28;20518;-50
2023/09/06 03:41:42;;;;;;;9.85;6.75;;;;;;;15.61;70.19;101796.91;15548287;28;20073;-47
2023/09/06 03:49:15;;;;;;;10.85;7.20;;;;;;;15.60;70.07;101797.13;15592711;22;20063;-52
2023/09/06 03:56:52;;;;;;;10.30;7.55;;;;;;;15.47;70.29;101803.44;15677149;28;20082;-50
2023/09/06 04:04:25;;;;;;;9.98;7.35;;;;;;;15.50;69.96;101809.25;15678269;28;20041;-49
2023/09/06 04:12:00;;;;;;;11.88;8.30;;;;;;;15.44;69.96;101798.50;15657366;28;20048;-52
2023/09/06 04:19:34;;;;;;;8.63;7.70;;;;;;;15.40;70.02;101817.03;15653882;28;20397;-48
2023/09/06 04:27:11;;;;;;;10.25;7.90;;;;;;;15.35;70.23;101826.84;15664295;28;20567;-48
2023/09/06 04:34:45;;;;;;;11.38;7.68;;;;;;;15.25;70.68;101830.00;15675755;28;20068;-51
2023/09/06 04:42:20;;;;;;;;;;;;;;;15.40;70.11;101837.84;15675634;28;20080;-48
2023/09/06 04:49:55;;;;;;;9.52;8.32;;;;;;;15.44;70.70;101858.00;15674122;28;20019;-49
2023/09/06 04:57:32;;;;;;;10.13;8.90;;;;;;;15.54;70.62;101851.09;15674989;28;20030;-49
2023/09/06 05:05:06;;;;;;;14.10;8.60;;;;;;;15.68;70.63;101860.00;15674786;28;20127;-51
2023/09/06 05:12:41;;;;;;;14.45;8.55;;;;;;;15.77;70.50;101866.81;15652433;28;20049;-48
2023/09/06 05:20:26;;;;;;;11.15;9.45;;;;;;;16.14;70.40;101855.34;15672578;28;20052;-52
2023/09/06 05:28:03;;;;;;;13.40;9.50;;;;;;;16.52;69.69;101866.88;15669279;28;20107;-49
2023/09/06 05:35:36;;;;;;;15.02;10.40;;;;;;;16.54;69.60;101855.81;15658206;28;20110;-47
2023/09/06 05:43:10;;;;;;;;;;;;;;;16.63;69.33;101864.50;15657665;28;20045;-51
2023/09/06 05:50:46;;;;;;;14.65;9.68;;;;;;;17.06;68.25;101868.03;15673676;28;19967;-47
2023/09/06 05:58:21;;;;;;;13.98;9.73;;;;;;;16.98;68.57;101878.38;15654241;28;20049;-47
2023/09/06 06:05:55;;;;;;;13.32;9.25;;;;;;;17.60;67.14;101882.63;15647978;28;20045;-47
2023/09/06 06:13:30;;;;;;;11.80;9.80;;;;;;;17.92;66.43;101890.59;15682626;28;20067;-47
2023/09/06 06:21:04;;;;;;;13.55;9.38;;;;;;;18.40;65.68;101888.81;15685976;28;20049;-47
2023/09/06 06:28:38;;;;;;;12.43;8.85;;;;;;;18.98;64.41;101890.72;15688290;28;20072;-48
2023/09/06 06:36:11;;;;;;;12.20;9.18;;;;;;;19.44;62.92;101884.38;15656717;28;20057;-49
2023/09/06 06:43:46;;;;;;;12.55;9.02;;;;;;;19.30;62.55;101896.59;15621119;28;20560;-50
2023/09/06 06:51:21;;;;;;;9.88;8.52;;;;;;;19.95;61.53;101881.81;15620349;28;20041;-49
2023/09/06 06:58:55;;;;;;;12.82;8.30;;;;;;;20.65;58.86;101900.50;15612054;28;20064;-51
2023/09/06 07:06:30;;;;;;;12.85;8.07;;;;;;;21.14;57.43;101895.19;15682171;28;20120;-50
2023/09/06 07:14:05;;;;;;;11.45;7.68;;;;;;;21.48;55.43;101898.66;15674724;28;20414;-50
2023/09/06 07:21:38;;;;;;;14.30;7.53;;;;;;;22.16;54.18;101904.63;15635187;28;20042;-48
2023/09/06 07:29:14;;;;;;;13.50;6.97;;;;;;;22.47;54.10;101913.88;15620060;28;21028;-49
2023/09/06 07:36:47;;;;;;;15.75;7.95;;;;;;;22.71;51.91;101895.22;15617922;28;20083;-49
2023/09/06 07:44:21;;;;;;;10.65;6.93;;;;;;;23.15;50.61;101898.50;15617510;28;20120;-51
2023/09/06 07:51:55;;;;;;;13.18;6.80;;;;;;;22.99;51.21;101901.41;15617398;28;20511;-50
2023/09/06 07:59:30;;;;;;;7.03;6.00;;;;;;;24.26;48.75;101910.06;15615898;28;20093;-50
2023/09/06 08:07:04;;;;;;;7.78;6.07;;;;;;;24.45;49.05;101909.56;15662923;28;20050;-50
2023/09/06 08:14:39;;;;;;;9.05;5.72;;;;;;;24.59;46.00;101907.91;15642994;28;20065;-52
2023/09/06 08:22:18;;;;;;;8.55;6.07;;;;;;;25.24;46.01;101903.38;15676927;28;20522;-50
2023/09/06 08:29:53;;;;;;;7.93;5.72;;;;;;;25.27;44.40;101880.81;15676443;28;20041;-50
2023/09/06 08:37:27;;;;;;;7.75;5.30;;;;;;;25.76;47.44;101923.25;15667375;28;20075;-51
2023/09/06 08:45:04;;;;;;;9.82;5.53;;;;;;;25.78;43.86;101913.59;15659851;28;20049;-52
2023/09/06 08:52:40;;;;;;;9.07;5.63;;;;;;;26.31;43.24;101911.03;15676660;28;20072;-51
2023/09/06 09:00:20;;;;;;;11.88;5.07;;;;;;;26.75;42.29;101918.38;15676813;28;20462;-50
2023/09/06 09:07:59;;;;;;;8.10;5.20;;;;;;;27.59;41.51;101916.03;15676572;28;20486;-50
2023/09/06 09:15:34;;;;;;;8.30;5.70;;;;;;;27.86;39.77;101922.88;15669565;28;20407;-50
2023/09/06 09:23:13;;;;;;;10.27;5.20;;;;;;;27.90;40.38;101913.69;15675393;28;20079;-48
2023/09/06 09:30:51;;;;;;;7.55;5.20;;;;;;;28.38;38.53;101927.31;15673624;28;20049;-49
2023/09/06 09:38:27;;;;;;;8.77;5.10;;;;;;;28.25;40.22;101917.00;15683930;28;20124;-47
2023/09/06 09:46:09;;;;;;;9.75;5.03;;;;;;;29.04;39.23;101917.03;15642929;28;20140;-49
2023/09/06 09:53:43;;;;;;;8.40;5.38;;;;;;;28.60;36.87;101915.63;15689786;22;20131;-53
2023/09/06 10:01:19;;;;;;;8.30;4.75;;;;;;;29.42;35.92;101914.03;15684968;28;20307;-51
2023/09/06 10:08:54;;;;;;;6.47;4.75;;;;;;;29.73;35.64;101914.22;15684270;28;20405;-53
2023/09/06 10:16:29;;;;;;;8.85;4.80;;;;;;;30.28;34.05;101913.22;15684852;28;20041;-50
2023/09/06 10:24:03;;;;;;;7.82;4.88;;;;;;;29.70;34.66;101921.22;15684543;28;20124;-48
2023/09/06 10:31:48;;;;;;;8.15;4.45;;;;;;;30.85;33.39;101917.00;15684367;28;20079;-50
2023/09/06 10:39:23;;;;;;;7.45;4.80;;;;;;;30.91;33.17;101912.13;15684137;28;20041;-48
2023/09/06 10:47:17;;;;;;;7.95;5.22;;;;;;;31.53;31.90;101914.00;15683380;28;20099;-51
2023/09/06 10:54:54;;;;;;;6.20;4.50;;;;;;;30.84;30.98;101909.00;15665686;28;20524;-47
2023/09/06 11:02:30;;;;;;;7.55;4.38;;;;;;;31.24;31.49;101896.75;15682467;28;20040;-52
2023/09/06 11:10:03;;;;;;;5.85;4.50;;;;;;;31.41;31.11;101882.13;15680758;28;20041;-51
2023/09/06 11:17:38;;;;;;;10.18;4.50;;;;;;;30.39;31.81;101889.66;15681539;28;20087;-52
2023/09/06 11:25:18;;;;;;;5.45;4.00;;;;;;;31.69;30.75;101885.41;15679948;28;20520;-54
2023/09/06 11:32:55;;;;;;;10.13;4.15;;;;;;;32.25;29.65;101877.22;15679345;28;20041;-53
2023/09/06 11:40:33;;;;;;;6.97;3.55;;;;;;;32.02;27.97;101873.84;15671279;28;20033;-51
2023/09/06 11:48:09;;;;;;;5.07;3.15;;;;;;;33.58;27.07;101869.66;15679362;28;20040;-50
2023/09/06 11:55:47;;;;;;;7.05;4.50;;;;;;;32.32;30.35;101866.44;15679358;28;20103;-53
2023/09/06 12:03:29;;;;;;;6.75;3.65;;;;;;;32.85;28.60;101862.34;15678107;28;20067;-54
2023/09/06 12:11:08;;;;;;;6.35;4.03;;;;;;;32.58;28.63;101862.78;15679662;28;20210;-53
2023/09/06 12:18:43;;;;;;;7.10;4.07;;;;;;;32.98;28.72;101866.88;15671147;28;20192;-52
2023/09/06 12:26:18;;;;;;;7.15;3.40;;;;;;;32.32;28.71;101858.09;15676749;28;20521;-52
2023/09/06 12:33:54;;;;;;;8.10;3.67;;;;;;;32.53;29.09;101858.22;15674730;28;20045;-52
2023/09/06 12:41:27;;;;;;;10.90;3.50;;;;;;;33.38;27.07;101855.31;15667833;28;20408;-54
2023/09/06 12:49:01;;;;;;;5.22;3.30;;;;;;;33.71;24.93;101846.25;15676752;28;20041;-55
2023/09/06 12:56:35;;;;;;;8.55;3.10;;;;;;;34.01;25.20;101842.25;15676649;28;20044;-52
2023/09/06 13:04:10;;;;;;;5.78;3.10;;;;;;;33.30;25.83;101842.31;15675876;28;20410;-51
2023/09/06 13:11:43;;;;;;;7.72;3.03;;;;;;;34.47;25.36;101828.31;15683430;28;20044;-53
2023/09/06 13:19:18;;;;;;;6.32;3.20;;;;;;;34.20;26.30;101829.75;15678873;28;20094;-51
2023/09/06 13:26:53;;;;;;;5.05;3.17;;;;;;;34.50;26.19;101839.56;15687712;28;20032;-51
2023/09/06 13:34:27;;;;;;;3.75;3.10;;;;;;;34.56;24.76;101825.44;15686568;28;20048;-49
2023/09/06 13:42:01;;;;;;;7.43;2.78;;;;;;;35.49;22.32;101818.03;15686861;28;20132;-50
2023/09/06 13:49:39;;;;;;;4.70;2.58;;;;;;;34.84;22.19;101806.00;15686968;28;20504;-51
2023/09/06 13:57:12;;;;;;;4.50;2.80;;;;;;;33.20;24.12;101812.91;15685839;28;20083;-52
2023/09/06 14:04:47;;;;;;;7.38;3.25;;;;;;;31.33;27.62;101801.66;15684396;28;20091;-53
2023/09/06 14:12:21;;;;;;;5.68;2.95;;;;;;;31.08;28.36;101803.22;15677589;28;20313;-50
2023/09/06 14:19:55;;;;;;;5.60;3.13;;;;;;;30.66;27.63;101803.56;15683700;28;20039;-54
2023/09/06 14:27:29;;;;;;;4.88;2.60;;;;;;;30.46;26.02;101787.53;15683198;28;20041;-51
2023/09/06 14:35:04;;;;;;;4.80;3.10;;;;;;;30.20;28.15;101790.16;15684202;28;20045;-48
2023/09/06 14:42:37;;;;;;;5.07;3.22;;;;;;;30.15;28.68;101788.34;15682947;28;20045;-49
2023/09/06 14:50:12;;;;;;;7.05;3.15;;;;;;;30.09;29.15;101783.25;15682775;28;20127;-53
2023/09/06 14:57:46;;;;;;;7.25;3.50;;;;;;;30.42;29.75;101787.34;15681513;28;20417;-49
2023/09/06 15:05:21;;;;;;;6.78;3.42;;;;;;;29.61;29.93;101783.88;15682388;28;20049;-50
2023/09/06 15:12:54;;;;;;;5.88;2.80;;;;;;;30.07;29.46;101783.53;15681795;28;20551;-51
2023/09/06 15:20:29;;;;;;;4.95;3.08;;;;;;;29.76;30.13;101780.75;15663759;28;20048;-50
2023/09/06 15:28:02;;;;;;;5.65;3.10;;;;;;;29.86;30.28;101783.25;15679640;28;20045;-52
2023/09/06 15:35:38;;;;;;;5.82;3.03;;;;;;;29.20;29.65;101777.34;15680572;28;20045;-53
2023/09/06 15:43:10;;;;;;;6.03;2.97;;;;;;;29.34;29.46;101780.06;15679673;28;20072;-55
2023/09/06 15:50:45;;;;;;;9.95;3.88;;;;;;;29.43;30.32;101782.91;15693225;22;20059;-51
2023/09/06 15:58:20;;;;;;;95.10;67.45;;;;;;;29.23;30.24;101778.66;15674030;28;20098;-49
2023/09/06 16:05:55;;;;;;;5.85;2.97;;;;;;;29.58;29.81;101779.81;15672793;28;20079;-48
2023/09/06 16:13:28;;;;;;;5.72;3.08;;;;;;;29.65;29.17;101773.81;15692149;28;20044;-49
2023/09/06 16:21:04;;;;;;;6.20;2.90;;;;;;;29.18;29.70;101787.06;15733714;28;20128;-48
2023/09/06 16:28:38;;;;;;;3.67;3.10;;;;;;;29.30;30.79;101781.00;15732782;28;20120;-50
2023/09/06 16:36:12;;;;;;;5.55;3.17;;;;;;;29.24;30.84;101783.06;15733503;28;20045;-49
2023/09/06 16:43:46;;;;;;;7.93;3.53;;;;;;;29.02;31.64;101792.13;15731775;28;20068;-47
2023/09/06 16:51:21;;;;;;;5.45;3.35;;;;;;;29.03;31.86;101784.66;15732278;28;20127;-49
2023/09/06 16:58:54;;;;;;;9.60;3.22;;;;;;;29.29;33.72;101791.25;15732227;28;20496;-46
2023/09/06 17:06:29;;;;;;;7.07;3.40;;;;;;;28.94;33.02;101793.63;15733302;28;20075;-44
2023/09/06 17:14:03;;;;;;;8.18;3.50;;;;;;;28.84;36.36;101802.13;15707670;28;20129;-51
2023/09/06 17:21:38;;;;;;;5.88;3.33;;;;;;;28.18;38.56;101811.66;15670030;28;20108;-51
2023/09/06 17:29:14;;;;;;;5.88;3.53;;;;;;;27.32;40.72;101805.53;15721933;28;20060;-52
2023/09/06 17:36:48;;;;;;;6.40;3.92;;;;;;;26.77;42.69;101814.22;15730704;28;20041;-45
2023/09/06 17:44:25;;;;;;;7.28;3.70;;;;;;;26.24;43.74;101814.19;15731939;28;20364;-50
2023/09/06 17:52:00;;;;;;;5.75;3.63;;;;;;;25.86;44.80;101813.16;15729913;28;20523;-45
2023/09/06 17:59:33;;;;;;;11.82;4.22;;;;;;;25.36;46.39;101818.66;15739874;28;20127;-49
2023/09/06 18:07:07;;;;;;;6.88;4.20;;;;;;;25.14;47.26;101832.00;15740362;28;20131;-51
2023/09/06 18:14:42;;;;;;;12.88;8.45;;;;;;;24.74;48.01;101835.66;15711303;28;20045;-60
2023/09/06 18:22:17;;;;;;;11.52;5.13;;;;;;;24.52;48.24;101852.44;15692432;28;20457;-51
2023/09/06 18:29:50;;;;;;;8.48;4.63;;;;;;;24.33;48.85;101847.50;15715911;28;20466;-48
2023/09/06 18:37:24;;;;;;;6.63;4.65;;;;;;;24.21;49.00;101848.91;15721255;28;20045;-50
2023/09/06 18:44:58;;;;;;;10.68;4.88;;;;;;;23.87;49.92;101858.47;15738974;28;20605;-47
2023/09/06 18:52:33;;;;;;;27.30;18.23;;;;;;;23.58;50.40;101855.34;15725624;28;20143;-46
2023/09/06 19:00:09;;;;;;;9.02;6.50;;;;;;;23.51;50.61;101862.22;15678747;28;20057;-54
2023/09/06 19:07:46;;;;;;;8.27;5.72;;;;;;;23.27;51.32;101862.69;15696861;28;20361;-45
2023/09/06 19:15:19;;;;;;;10.23;5.30;;;;;;;22.98;52.29;101875.13;15703520;28;20037;-48
2023/09/06 19:22:54;;;;;;;10.13;5.57;;;;;;;22.78;53.21;101873.06;15744312;28;20854;-51
2023/09/06 19:30:27;;;;;;;10.60;5.30;;;;;;;22.57;53.86;101888.50;15707361;28;20048;-50
2023/09/06 19:38:02;;;;;;;8.57;5.70;;;;;;;22.39;55.06;101881.56;15675446;28;20059;-48
2023/09/06 19:45:35;;;;;;;12.65;6.10;;;;;;;22.16;55.40;101880.00;15724630;28;20511;-49
2023/09/06 19:53:11;;;;;;;11.02;6.28;;;;;;;21.98;55.14;101878.44;15734195;28;20032;-49
2023/09/06 20:00:44;;;;;;;7.15;6.10;;;;;;;21.71;55.66;101878.44;15695614;28;20032;-57
2023/09/06 20:08:19;;;;;;;10.32;5.80;;;;;;;21.55;55.84;101873.91;15689681;28;20123;-48
2023/09/06 20:15:53;;;;;;;12.25;6.22;;;;;;;21.38;56.12;101863.84;15694419;28;20048;-52
2023/09/06 20:23:30;;;;;;;9.32;6.45;;;;;;;21.31;56.72;101867.84;15704591;28;20471;-50
2023/09/06 20:31:08;;;;;;;11.13;6.27;;;;;;;21.17;56.86;101870.13;15725444;28;20044;-48
2023/09/06 20:38:42;;;;;;;8.00;6.60;;;;;;;20.87;58.68;101879.53;15710775;28;20060;-51
2023/09/06 20:46:15;;;;;;;9.38;6.43;;;;;;;20.87;58.30;101881.44;15717766;28;20059;-52
2023/09/06 20:53:50;;;;;;;12.40;6.32;;;;;;;20.64;58.96;101887.94;15719534;28;20043;-53
2023/09/06 21:01:23;;;;;;;9.15;6.63;;;;;;;20.41;59.47;101890.81;15731560;28;20485;-49
2023/09/06 21:08:59;;;;;;;9.43;7.22;;;;;;;20.33;59.39;101894.75;15710911;28;20045;-51
2023/09/06 21:16:32;;;;;;;13.23;8.10;;;;;;;20.15;59.86;101903.19;15695336;28;20056;-47
2023/09/06 21:24:08;;;;;;;12.82;8.50;;;;;;;20.06;60.37;101902.75;15685399;28;20056;-49
2023/09/06 21:31:41;;;;;;;9.70;7.72;;;;;;;19.91;60.97;101905.19;15672873;28;20486;-52
2023/09/06 21:39:15;;;;;;;13.10;7.90;;;;;;;19.90;61.02;101904.38;15663990;28;20076;-47
2023/09/06 21:46:48;;;;;;;9.60;7.75;;;;;;;19.82;60.94;101911.06;15707626;28;20131;-45
2023/09/06 21:54:23;;;;;;;10.70;7.95;;;;;;;19.75;61.05;101918.53;15724673;22;20101;-49
2023/09/06 22:01:56;;;;;;;12.77;7.47;;;;;;;19.62;61.37;101918.81;15746654;28;20032;-50
2023/09/06 22:09:49;;;;;;;9.17;7.23;;;;;;;19.50;61.55;101931.63;15706419;28;20049;-49
2023/09/06 22:17:42;;;;;;;10.48;8.07;;;;;;;19.47;61.62;101938.34;15685387;28;20437;-47
2023/09/06 22:25:16;;;;;;;12.93;8.02;;;;;;;19.35;62.41;101935.69;15701932;28;20385;-47
2023/09/06 22:32:50;;;;;;;12.10;8.20;;;;;;;19.28;62.57;101931.41;15690385;28;20063;-52
2023/09/06 22:40:24;;;;;;;;;;;;;;;19.20;63.08;101939.94;15699928;28;20482;-47
2023/09/06 22:47:58;;;;;;;9.93;7.93;;;;;;;18.93;63.49;101942.31;15694614;28;20396;-47
2023/09/06 22:55:32;;;;;;;9.45;7.47;;;;;;;19.02;63.21;101943.63;15669591;28;20033;-51
2023/09/06 23:03:08;;;;;;;10.15;7.78;;;;;;;18.82;63.75;101952.97;15696629;28;20344;-51
2023/09/06 23:10:43;;;;;;;10.25;8.05;;;;;;;18.74;64.31;101949.75;15695771;28;20116;-51
2023/09/06 23:18:20;;;;;;;10.52;7.25;;;;;;;18.59;64.71;101947.47;15687642;28;20045;-50
2023/09/06 23:25:56;;;;;;;11.27;7.70;;;;;;;18.52;65.43;101944.03;15692713;28;20111;-47
2023/09/06 23:33:38;;;;;;;10.50;7.82;;;;;;;18.45;65.50;101955.00;15700626;28;20052;-46
2023/09/06 23:41:16;;;;;;;;;;;;;;;18.45;64.90;101955.00;15718476;28;20049;-46
2023/09/06 23:48:49;;;;;;;10.18;8.25;;;;;;;18.38;65.11;101956.19;15668900;28;19927;-50
2023/09/06 23:56:23;;;;;;;;;;;;;;;18.18;65.61;101957.28;15692619;28;20041;-51
